CCM26E LFKF-LFML
Flight info
| Callsign | CCM26E |
|---|---|
| Flight time | 0h 47m |
| Altitude | 24000 |
| Route | AJO Z154 TINOT |
| Aircraft | A320/M-SDE3FGHIRWY/LB1 |
Departure
| Time | 2026-05-06 12:15 |
|---|---|
| Airport | Figari Sud-Corse Airport (LFKF) |
Arrival
| Time | 2026-05-06 13:02 |
|---|---|
| Airport | Marseille Provence Airport (LFML) |
| Time | Latitude | Longitude | Altitude | Speed | Heading |
|---|---|---|---|---|---|
| 2026-05-06 11:41 | 41.49966 | 9.09794 | 61 ft | 0 kts | 137° |
| 2026-05-06 12:05 | 41.49973 | 9.09786 | 71 ft | 4 kts | 137° |
| 2026-05-06 12:05 | 41.49992 | 9.09763 | 61 ft | 2 kts | 137° |
| 2026-05-06 12:05 | 41.50006 | 9.09741 | 66 ft | 4 kts | 99° |
| 2026-05-06 12:05 | 41.49999 | 9.09714 | 63 ft | 4 kts | 39° |
| 2026-05-06 12:06 | 41.49980 | 9.09693 | 67 ft | 2 kts | 47° |
| 2026-05-06 12:06 | 41.49979 | 9.09691 | 67 ft | 0 kts | 47° |
| 2026-05-06 12:09 | 41.49979 | 9.09692 | 71 ft | 1 kts | 47° |
| 2026-05-06 12:10 | 41.49997 | 9.09718 | 65 ft | 6 kts | 48° |
| 2026-05-06 12:10 | 41.50027 | 9.09762 | 68 ft | 7 kts | 47° |
| 2026-05-06 12:10 | 41.50082 | 9.09812 | 67 ft | 10 kts | 4° |
| 2026-05-06 12:10 | 41.50136 | 9.09765 | 64 ft | 9 kts | 318° |
| 2026-05-06 12:11 | 41.50187 | 9.09705 | 65 ft | 12 kts | 319° |
| 2026-05-06 12:11 | 41.50252 | 9.09734 | 63 ft | 10 kts | 49° |
| 2026-05-06 12:11 | 41.50303 | 9.09808 | 69 ft | 14 kts | 48° |
| 2026-05-06 12:11 | 41.50383 | 9.09925 | 74 ft | 21 kts | 47° |
| 2026-05-06 12:12 | 41.50479 | 9.10065 | 82 ft | 18 kts | 47° |
| 2026-05-06 12:12 | 41.50561 | 9.10184 | 83 ft | 16 kts | 47° |
| 2026-05-06 12:12 | 41.50632 | 9.10286 | 85 ft | 15 kts | 47° |
| 2026-05-06 12:12 | 41.50712 | 9.10403 | 84 ft | 19 kts | 48° |
| 2026-05-06 12:13 | 41.50794 | 9.10522 | 86 ft | 16 kts | 47° |
| 2026-05-06 12:13 | 41.50867 | 9.10629 | 88 ft | 16 kts | 47° |
| 2026-05-06 12:13 | 41.50917 | 9.10743 | 91 ft | 12 kts | 78° |
| 2026-05-06 12:13 | 41.50944 | 9.10800 | 93 ft | 5 kts | 8° |
| 2026-05-06 12:14 | 41.50964 | 9.10778 | 92 ft | 6 kts | 290° |
| 2026-05-06 12:14 | 41.50934 | 9.10727 | 89 ft | 9 kts | 225° |
| 2026-05-06 12:14 | 41.50892 | 9.10665 | 87 ft | 16 kts | 228° |
| 2026-05-06 12:14 | 41.50647 | 9.10309 | 87 ft | 87 kts | 227° |
| 2026-05-06 12:15 | 41.50096 | 9.09512 | 85 ft | 143 kts | 227° |
| 2026-05-06 12:15 | 41.49413 | 9.08546 | 702 ft | 142 kts | 228° |
| 2026-05-06 12:15 | 41.48652 | 9.07716 | 1323 ft | 146 kts | 209° |
| 2026-05-06 12:15 | 41.47672 | 9.07242 | 1909 ft | 155 kts | 204° |
| 2026-05-06 12:16 | 41.46606 | 9.06705 | 2422 ft | 171 kts | 204° |
| 2026-05-06 12:16 | 41.45425 | 9.06105 | 2840 ft | 191 kts | 203° |
| 2026-05-06 12:16 | 41.44121 | 9.05451 | 3230 ft | 208 kts | 203° |
| 2026-05-06 12:16 | 41.42725 | 9.04749 | 3863 ft | 217 kts | 203° |
| 2026-05-06 12:17 | 41.41416 | 9.03828 | 4713 ft | 215 kts | 224° |
| 2026-05-06 12:17 | 41.40593 | 9.02212 | 5595 ft | 212 kts | 250° |
| 2026-05-06 12:17 | 41.40419 | 9.00218 | 6194 ft | 224 kts | 277° |
| 2026-05-06 12:17 | 41.40995 | 8.98264 | 6999 ft | 228 kts | 292° |
| 2026-05-06 12:18 | 41.41703 | 8.96382 | 7907 ft | 226 kts | 291° |
| 2026-05-06 12:18 | 41.42488 | 8.94576 | 8708 ft | 233 kts | 304° |
| 2026-05-06 12:18 | 41.43755 | 8.93138 | 9462 ft | 247 kts | 324° |
| 2026-05-06 12:18 | 41.45434 | 8.92205 | 9888 ft | 275 kts | 334° |
| 2026-05-06 12:19 | 41.47316 | 8.91309 | 10241 ft | 298 kts | 334° |
| 2026-05-06 12:19 | 41.49320 | 8.90370 | 10549 ft | 321 kts | 335° |
| 2026-05-06 12:19 | 41.51497 | 8.89374 | 10986 ft | 337 kts | 336° |
| 2026-05-06 12:19 | 41.53746 | 8.88357 | 11711 ft | 343 kts | 336° |
| 2026-05-06 12:20 | 41.56037 | 8.87318 | 12507 ft | 348 kts | 336° |
| 2026-05-06 12:20 | 41.58340 | 8.86263 | 13301 ft | 352 kts | 336° |
| 2026-05-06 12:20 | 41.60669 | 8.85186 | 14027 ft | 356 kts | 335° |
| 2026-05-06 12:20 | 41.63028 | 8.84084 | 14706 ft | 360 kts | 335° |
| 2026-05-06 12:21 | 41.65375 | 8.82979 | 15385 ft | 364 kts | 335° |
| 2026-05-06 12:21 | 41.67779 | 8.81840 | 16074 ft | 368 kts | 335° |
| 2026-05-06 12:21 | 41.70207 | 8.80689 | 16739 ft | 372 kts | 335° |
| 2026-05-06 12:21 | 41.72641 | 8.79469 | 17374 ft | 373 kts | 330° |
| 2026-05-06 12:22 | 41.74872 | 8.77726 | 18001 ft | 370 kts | 317° |
| 2026-05-06 12:22 | 41.76771 | 8.75420 | 18601 ft | 367 kts | 306° |
| 2026-05-06 12:22 | 41.78261 | 8.72666 | 19207 ft | 363 kts | 294° |
| 2026-05-06 12:22 | 41.79298 | 8.69648 | 19861 ft | 359 kts | 285° |
| 2026-05-06 12:23 | 41.80192 | 8.66511 | 20532 ft | 361 kts | 285° |
| 2026-05-06 12:23 | 41.81092 | 8.63362 | 21183 ft | 363 kts | 284° |
| 2026-05-06 12:23 | 41.81999 | 8.60193 | 21817 ft | 365 kts | 284° |
| 2026-05-06 12:23 | 41.82910 | 8.57009 | 22430 ft | 367 kts | 284° |
| 2026-05-06 12:24 | 41.83828 | 8.53799 | 23037 ft | 369 kts | 283° |
| 2026-05-06 12:24 | 41.84745 | 8.50578 | 23619 ft | 371 kts | 283° |
| 2026-05-06 12:24 | 41.85670 | 8.47326 | 24093 ft | 373 kts | 283° |
| 2026-05-06 12:24 | 41.86586 | 8.44096 | 24545 ft | 376 kts | 283° |
| 2026-05-06 12:25 | 41.87519 | 8.40797 | 24981 ft | 378 kts | 283° |
| 2026-05-06 12:25 | 41.88453 | 8.37485 | 25402 ft | 381 kts | 283° |
| 2026-05-06 12:25 | 41.89394 | 8.34147 | 25844 ft | 384 kts | 283° |
| 2026-05-06 12:25 | 41.90345 | 8.30772 | 26247 ft | 388 kts | 283° |
| 2026-05-06 12:26 | 41.91304 | 8.27362 | 26616 ft | 391 kts | 283° |
| 2026-05-06 12:26 | 41.92260 | 8.23969 | 27003 ft | 394 kts | 283° |
| 2026-05-06 12:26 | 41.93234 | 8.20514 | 27403 ft | 396 kts | 283° |
| 2026-05-06 12:26 | 41.94215 | 8.17021 | 27799 ft | 398 kts | 283° |
| 2026-05-06 12:27 | 41.95182 | 8.13575 | 27942 ft | 397 kts | 283° |
| 2026-05-06 12:27 | 41.96142 | 8.10171 | 27965 ft | 380 kts | 283° |
| 2026-05-06 12:27 | 41.97067 | 8.06898 | 27968 ft | 371 kts | 283° |
| 2026-05-06 12:27 | 41.97970 | 8.03661 | 27960 ft | 368 kts | 282° |
| 2026-05-06 12:28 | 41.98867 | 8.00434 | 27960 ft | 368 kts | 282° |
| 2026-05-06 12:28 | 41.99748 | 7.97251 | 27960 ft | 367 kts | 282° |
| 2026-05-06 12:28 | 42.00638 | 7.94032 | 27962 ft | 367 kts | 282° |
| 2026-05-06 12:28 | 42.01528 | 7.90815 | 27961 ft | 367 kts | 282° |
| 2026-05-06 12:29 | 42.02419 | 7.87601 | 27958 ft | 367 kts | 282° |
| 2026-05-06 12:29 | 42.03312 | 7.84382 | 27959 ft | 367 kts | 282° |
| 2026-05-06 12:29 | 42.04205 | 7.81168 | 27959 ft | 366 kts | 282° |
| 2026-05-06 12:29 | 42.05083 | 7.77994 | 27959 ft | 366 kts | 282° |
| 2026-05-06 12:30 | 42.05970 | 7.74773 | 27961 ft | 366 kts | 282° |
| 2026-05-06 12:30 | 42.06858 | 7.71542 | 27961 ft | 366 kts | 282° |
| 2026-05-06 12:30 | 42.07744 | 7.68323 | 27961 ft | 366 kts | 282° |
| 2026-05-06 12:30 | 42.08629 | 7.65097 | 27961 ft | 366 kts | 282° |
| 2026-05-06 12:31 | 42.09499 | 7.61918 | 27964 ft | 366 kts | 282° |
| 2026-05-06 12:31 | 42.10378 | 7.58700 | 27980 ft | 366 kts | 282° |
| 2026-05-06 12:31 | 42.11260 | 7.55478 | 27986 ft | 366 kts | 282° |
| 2026-05-06 12:31 | 42.12148 | 7.52247 | 27978 ft | 366 kts | 282° |
| 2026-05-06 12:32 | 42.13031 | 7.49030 | 27976 ft | 366 kts | 282° |
| 2026-05-06 12:32 | 42.13897 | 7.45853 | 27972 ft | 365 kts | 282° |
| 2026-05-06 12:32 | 42.14773 | 7.42638 | 27969 ft | 365 kts | 282° |
| 2026-05-06 12:32 | 42.15648 | 7.39427 | 27966 ft | 365 kts | 282° |
| 2026-05-06 12:33 | 42.16522 | 7.36213 | 27963 ft | 365 kts | 282° |
| 2026-05-06 12:33 | 42.17397 | 7.32989 | 27975 ft | 365 kts | 282° |
| 2026-05-06 12:33 | 42.18268 | 7.29767 | 27973 ft | 365 kts | 281° |
| 2026-05-06 12:33 | 42.19141 | 7.26539 | 27970 ft | 365 kts | 281° |
| 2026-05-06 12:34 | 42.19997 | 7.23363 | 27967 ft | 365 kts | 281° |
| 2026-05-06 12:34 | 42.20864 | 7.20142 | 27962 ft | 365 kts | 281° |
| 2026-05-06 12:34 | 42.21731 | 7.16919 | 27964 ft | 364 kts | 281° |
| 2026-05-06 12:34 | 42.22598 | 7.13695 | 27964 ft | 364 kts | 281° |
| 2026-05-06 12:35 | 42.23454 | 7.10519 | 27952 ft | 364 kts | 281° |
| 2026-05-06 12:35 | 42.24318 | 7.07302 | 27952 ft | 364 kts | 281° |
| 2026-05-06 12:35 | 42.25177 | 7.04090 | 27952 ft | 364 kts | 281° |
| 2026-05-06 12:35 | 42.26037 | 7.00871 | 27953 ft | 364 kts | 281° |
| 2026-05-06 12:36 | 42.26607 | 6.98737 | 27945 ft | 364 kts | 281° |
| 2026-05-06 12:36 | 42.27467 | 6.95513 | 27950 ft | 364 kts | 281° |
| 2026-05-06 12:36 | 42.28325 | 6.92296 | 27947 ft | 364 kts | 281° |
| 2026-05-06 12:36 | 42.29185 | 6.89074 | 27945 ft | 363 kts | 281° |
| 2026-05-06 12:37 | 42.30042 | 6.85858 | 27947 ft | 363 kts | 281° |
| 2026-05-06 12:37 | 42.30896 | 6.82644 | 27980 ft | 363 kts | 281° |
| 2026-05-06 12:37 | 42.31737 | 6.79472 | 27980 ft | 363 kts | 281° |
| 2026-05-06 12:37 | 42.32593 | 6.76238 | 27977 ft | 362 kts | 281° |
| 2026-05-06 12:38 | 42.33446 | 6.73024 | 27971 ft | 362 kts | 281° |
| 2026-05-06 12:38 | 42.34283 | 6.69855 | 27967 ft | 362 kts | 281° |
| 2026-05-06 12:38 | 42.35130 | 6.66643 | 27968 ft | 362 kts | 281° |
| 2026-05-06 12:38 | 42.35973 | 6.63434 | 27966 ft | 362 kts | 281° |
| 2026-05-06 12:39 | 42.36817 | 6.60225 | 27961 ft | 362 kts | 281° |
| 2026-05-06 12:39 | 42.37661 | 6.57020 | 27959 ft | 362 kts | 281° |
| 2026-05-06 12:39 | 42.38506 | 6.53810 | 27960 ft | 362 kts | 281° |
| 2026-05-06 12:39 | 42.39339 | 6.50639 | 27958 ft | 362 kts | 281° |
| 2026-05-06 12:40 | 42.40179 | 6.47435 | 27953 ft | 361 kts | 281° |
| 2026-05-06 12:40 | 42.41020 | 6.44225 | 27989 ft | 361 kts | 280° |
| 2026-05-06 12:40 | 42.41857 | 6.41025 | 27979 ft | 360 kts | 280° |
| 2026-05-06 12:40 | 42.42689 | 6.37826 | 27973 ft | 360 kts | 280° |
| 2026-05-06 12:41 | 42.43521 | 6.34626 | 27967 ft | 359 kts | 280° |
| 2026-05-06 12:41 | 42.44340 | 6.31473 | 27988 ft | 359 kts | 280° |
| 2026-05-06 12:41 | 42.45171 | 6.28275 | 27984 ft | 359 kts | 280° |
| 2026-05-06 12:41 | 42.45996 | 6.25094 | 27979 ft | 358 kts | 280° |
| 2026-05-06 12:42 | 42.46820 | 6.21910 | 27975 ft | 358 kts | 280° |
| 2026-05-06 12:42 | 42.47643 | 6.18734 | 27848 ft | 355 kts | 280° |
| 2026-05-06 12:42 | 42.48454 | 6.15615 | 27579 ft | 347 kts | 280° |
| 2026-05-06 12:42 | 42.49240 | 6.12586 | 27314 ft | 343 kts | 280° |
| 2026-05-06 12:43 | 42.50028 | 6.09537 | 27061 ft | 341 kts | 280° |
| 2026-05-06 12:43 | 42.50805 | 6.06509 | 26840 ft | 339 kts | 280° |
| 2026-05-06 12:43 | 42.51575 | 6.03505 | 26582 ft | 337 kts | 280° |
| 2026-05-06 12:43 | 42.52344 | 6.00508 | 26327 ft | 335 kts | 280° |
| 2026-05-06 12:44 | 42.53108 | 5.97523 | 26078 ft | 333 kts | 280° |
| 2026-05-06 12:44 | 42.53862 | 5.94569 | 25823 ft | 328 kts | 280° |
| 2026-05-06 12:44 | 42.54602 | 5.91670 | 25441 ft | 323 kts | 280° |
| 2026-05-06 12:44 | 42.55337 | 5.88799 | 25046 ft | 320 kts | 280° |
| 2026-05-06 12:45 | 42.56054 | 5.85996 | 24647 ft | 317 kts | 280° |
| 2026-05-06 12:45 | 42.56772 | 5.83175 | 24232 ft | 314 kts | 280° |
| 2026-05-06 12:45 | 42.58184 | 5.77606 | 23417 ft | 310 kts | 280° |
| 2026-05-06 12:46 | 42.58882 | 5.74854 | 22980 ft | 307 kts | 280° |
| 2026-05-06 12:46 | 42.59574 | 5.72131 | 22589 ft | 303 kts | 281° |
| 2026-05-06 12:46 | 42.60259 | 5.69442 | 22218 ft | 300 kts | 281° |
| 2026-05-06 12:46 | 42.60928 | 5.66807 | 21833 ft | 297 kts | 281° |
| 2026-05-06 12:47 | 42.61596 | 5.64161 | 21460 ft | 294 kts | 281° |
| 2026-05-06 12:47 | 42.62253 | 5.61550 | 21098 ft | 291 kts | 281° |
| 2026-05-06 12:47 | 42.62905 | 5.58960 | 20735 ft | 288 kts | 281° |
| 2026-05-06 12:47 | 42.63552 | 5.56397 | 20379 ft | 285 kts | 281° |
| 2026-05-06 12:48 | 42.64185 | 5.53881 | 20036 ft | 283 kts | 281° |
| 2026-05-06 12:48 | 42.64816 | 5.51364 | 19683 ft | 281 kts | 281° |
| 2026-05-06 12:48 | 42.65445 | 5.48852 | 19332 ft | 279 kts | 282° |
| 2026-05-06 12:48 | 42.66070 | 5.46358 | 18990 ft | 278 kts | 282° |
| 2026-05-06 12:49 | 42.66690 | 5.43876 | 18646 ft | 276 kts | 282° |
| 2026-05-06 12:49 | 42.67306 | 5.41409 | 18300 ft | 275 kts | 282° |
| 2026-05-06 12:49 | 42.67909 | 5.38983 | 17928 ft | 273 kts | 282° |
| 2026-05-06 12:49 | 42.68516 | 5.36544 | 17597 ft | 271 kts | 283° |
| 2026-05-06 12:50 | 42.69164 | 5.34135 | 17268 ft | 272 kts | 289° |
| 2026-05-06 12:50 | 42.70177 | 5.31940 | 16943 ft | 278 kts | 304° |
| 2026-05-06 12:50 | 42.71636 | 5.30057 | 16492 ft | 302 kts | 319° |
| 2026-05-06 12:50 | 42.73469 | 5.28546 | 16007 ft | 310 kts | 324° |
| 2026-05-06 12:51 | 42.75319 | 5.27085 | 15532 ft | 312 kts | 324° |
| 2026-05-06 12:51 | 42.77209 | 5.25584 | 15043 ft | 315 kts | 325° |
| 2026-05-06 12:51 | 42.79113 | 5.24068 | 14564 ft | 318 kts | 325° |
| 2026-05-06 12:51 | 42.81026 | 5.22543 | 14068 ft | 320 kts | 326° |
| 2026-05-06 12:52 | 42.82959 | 5.20998 | 13546 ft | 322 kts | 326° |
| 2026-05-06 12:52 | 42.84874 | 5.19465 | 13037 ft | 323 kts | 326° |
| 2026-05-06 12:52 | 42.86807 | 5.17921 | 12639 ft | 320 kts | 326° |
| 2026-05-06 12:52 | 42.88731 | 5.16380 | 12175 ft | 319 kts | 326° |
| 2026-05-06 12:53 | 42.90626 | 5.14864 | 11957 ft | 310 kts | 326° |
| 2026-05-06 12:53 | 42.92528 | 5.13611 | 11949 ft | 301 kts | 340° |
| 2026-05-06 12:53 | 42.94597 | 5.13187 | 11955 ft | 304 kts | 358° |
| 2026-05-06 12:53 | 42.96692 | 5.13688 | 11956 ft | 309 kts | 17° |
| 2026-05-06 12:54 | 42.98610 | 5.14966 | 11955 ft | 311 kts | 26° |
| 2026-05-06 12:54 | 43.00521 | 5.16379 | 11695 ft | 312 kts | 26° |
| 2026-05-06 12:54 | 43.02471 | 5.17824 | 10677 ft | 321 kts | 26° |
| 2026-05-06 12:54 | 43.04446 | 5.19287 | 9894 ft | 321 kts | 26° |
| 2026-05-06 12:55 | 43.06354 | 5.20705 | 9433 ft | 308 kts | 26° |
| 2026-05-06 12:55 | 43.08214 | 5.22086 | 8852 ft | 300 kts | 26° |
| 2026-05-06 12:55 | 43.10040 | 5.23435 | 8187 ft | 296 kts | 25° |
| 2026-05-06 12:55 | 43.11852 | 5.24769 | 7529 ft | 293 kts | 25° |
| 2026-05-06 12:56 | 43.13632 | 5.26085 | 7061 ft | 285 kts | 25° |
| 2026-05-06 12:56 | 43.15378 | 5.27381 | 6652 ft | 285 kts | 25° |
| 2026-05-06 12:56 | 43.17123 | 5.28677 | 5888 ft | 285 kts | 24° |
| 2026-05-06 12:56 | 43.18822 | 5.29943 | 5460 ft | 272 kts | 24° |
| 2026-05-06 12:57 | 43.20425 | 5.31144 | 5310 ft | 253 kts | 24° |
| 2026-05-06 12:57 | 43.21924 | 5.32262 | 5201 ft | 237 kts | 21° |
| 2026-05-06 12:57 | 43.23436 | 5.32928 | 5080 ft | 221 kts | 2° |
| 2026-05-06 12:57 | 43.24936 | 5.32982 | 4670 ft | 218 kts | 352° |
| 2026-05-06 12:58 | 43.26438 | 5.32935 | 4276 ft | 214 kts | 353° |
| 2026-05-06 12:58 | 43.27916 | 5.32895 | 3920 ft | 211 kts | 354° |
| 2026-05-06 12:58 | 43.29386 | 5.32855 | 3564 ft | 211 kts | 354° |
| 2026-05-06 12:58 | 43.30838 | 5.32820 | 3218 ft | 206 kts | 354° |
| 2026-05-06 12:59 | 43.32266 | 5.32788 | 2947 ft | 203 kts | 355° |
| 2026-05-06 12:59 | 43.33640 | 5.32755 | 2940 ft | 193 kts | 355° |
| 2026-05-06 12:59 | 43.34967 | 5.32665 | 2834 ft | 187 kts | 345° |
| 2026-05-06 12:59 | 43.36151 | 5.32031 | 2630 ft | 181 kts | 321° |
| 2026-05-06 13:00 | 43.37055 | 5.30904 | 2358 ft | 174 kts | 309° |
| 2026-05-06 13:00 | 43.37877 | 5.29735 | 2072 ft | 166 kts | 310° |
| 2026-05-06 13:00 | 43.38670 | 5.28610 | 1784 ft | 161 kts | 309° |
| 2026-05-06 13:00 | 43.39436 | 5.27522 | 1506 ft | 154 kts | 310° |
| 2026-05-06 13:01 | 43.40164 | 5.26491 | 1231 ft | 149 kts | 309° |
| 2026-05-06 13:01 | 43.40870 | 5.25482 | 977 ft | 145 kts | 309° |
| 2026-05-06 13:01 | 43.41560 | 5.24480 | 700 ft | 145 kts | 310° |
| 2026-05-06 13:01 | 43.42275 | 5.23489 | 414 ft | 144 kts | 308° |
| 2026-05-06 13:02 | 43.42960 | 5.22510 | 153 ft | 139 kts | 309° |
| 2026-05-06 13:02 | 43.43598 | 5.21595 | 41 ft | 118 kts | 314° |
| 2026-05-06 13:02 | 43.44053 | 5.20958 | 21 ft | 68 kts | 314° |
| 2026-05-06 13:02 | 43.44294 | 5.20614 | 19 ft | 43 kts | 313° |
| 2026-05-06 13:03 | 43.44484 | 5.20345 | 20 ft | 33 kts | 315° |
| 2026-05-06 13:03 | 43.44619 | 5.20233 | 18 ft | 13 kts | 13° |
| 2026-05-06 13:03 | 43.44666 | 5.20281 | 17 ft | 8 kts | 53° |
| 2026-05-06 13:03 | 43.44666 | 5.20347 | 18 ft | 7 kts | 116° |
| 2026-05-06 13:04 | 43.44639 | 5.20394 | 18 ft | 6 kts | 134° |
| 2026-05-06 13:04 | 43.44609 | 5.20436 | 18 ft | 8 kts | 135° |
| 2026-05-06 13:04 | 43.44569 | 5.20492 | 18 ft | 8 kts | 134° |
| 2026-05-06 13:04 | 43.44533 | 5.20543 | 18 ft | 7 kts | 134° |
| 2026-05-06 13:05 | 43.44497 | 5.20595 | 18 ft | 11 kts | 134° |
| 2026-05-06 13:05 | 43.44434 | 5.20684 | 18 ft | 13 kts | 134° |
| 2026-05-06 13:05 | 43.44374 | 5.20769 | 18 ft | 14 kts | 134° |
| 2026-05-06 13:05 | 43.44306 | 5.20893 | 19 ft | 17 kts | 119° |
| 2026-05-06 13:06 | 43.44248 | 5.21015 | 20 ft | 14 kts | 130° |
| 2026-05-06 13:06 | 43.44191 | 5.21100 | 22 ft | 11 kts | 133° |
| 2026-05-06 13:06 | 43.44133 | 5.21182 | 25 ft | 12 kts | 134° |
| 2026-05-06 13:06 | 43.44079 | 5.21260 | 27 ft | 10 kts | 134° |
| 2026-05-06 13:07 | 43.44017 | 5.21347 | 29 ft | 19 kts | 134° |
| 2026-05-06 13:07 | 43.43927 | 5.21481 | 33 ft | 17 kts | 117° |
| 2026-05-06 13:07 | 43.43962 | 5.21609 | 34 ft | 15 kts | 48° |
| 2026-05-06 13:07 | 43.43965 | 5.21722 | 34 ft | 12 kts | 126° |
| 2026-05-06 13:08 | 43.43914 | 5.21786 | 37 ft | 8 kts | 143° |
| 2026-05-06 13:08 | 43.43883 | 5.21838 | 38 ft | 7 kts | 133° |
| 2026-05-06 13:08 | 43.43855 | 5.21879 | 37 ft | 6 kts | 134° |
| 2026-05-06 13:08 | 43.43802 | 5.21953 | 41 ft | 15 kts | 134° |
| 2026-05-06 13:09 | 43.43814 | 5.22070 | 43 ft | 14 kts | 46° |
| 2026-05-06 13:09 | 43.43867 | 5.22161 | 43 ft | 11 kts | 87° |
| 2026-05-06 13:09 | 43.43820 | 5.22217 | 44 ft | 8 kts | 163° |
| 2026-05-06 13:09 | 43.43807 | 5.22270 | 45 ft | 6 kts | 75° |
| 2026-05-06 13:10 | 43.43815 | 5.22307 | 46 ft | 0 kts | 73° |